Dades meteomassalio
 
Diari Summary for Abril 21, 2018 Units:  Metric    English   Both
« Previous Day
Next Day »
Diari Semanal Mensual Anual Personalitzat
  Actual: Maxima: Minima: Mijana:
Temperatura: -5.7 °C -17.8 °C -14.7 °C -12.3 °C
Rosada: -11 °C -17.8 °C -15.4 °C -13.8 °C
Humitat: 55 % Humidity % 54 % 83 %
Velocitat del vent: 20.8 km/h 0 km/h 0 km/h 1.4 km/h
Racha vent: 20.8 km/h 0 km/h - -
Vent:ESE - - SE
Pressio: 34635.4 hPa 0 hPa 34635.4 hPa -
Pluja: 0 mm      
Historical Graphs
 
 
Tabular Data for Abril 21, 2018
Time Temperature Dew Point Pressure Wind Wind Speed Wind Gust Humidity Rainfall Rate (Hourly) solar Conditions
-17.8 °C -17.8 °C 0 hPa Calm     Humidity % 0 mm SolarRadiationWatts/m^2 W/m2 Conditions
00:00 -12.6 °C -13.8 °C 34693 hPa Calm     85 % 0 mm 0.0 W/m2 CLR
00:05 -12.8 °C -14.2 °C 34682.8 hPa Calm     85 % 0 mm 0.0 W/m2 CLR
00:10 -12.8 °C -14.2 °C 34693 hPa Calm     85 % 0 mm 0.0 W/m2 CLR
00:15 -12.8 °C -14.2 °C 34682.8 hPa Calm     85 % 0 mm 0.0 W/m2 CLR
00:20 -12.8 °C -14.2 °C 34682.8 hPa Calm     85 % 0 mm 0.0 W/m2 CLR
00:25 -12.8 °C -14.2 °C 34682.8 hPa Calm     85 % 0 mm 0.0 W/m2 CLR
00:30 -12.8 °C -14.2 °C 34682.8 hPa Calm     85 % 0 mm 0.0 W/m2 CLR
00:35 -12.8 °C -14.2 °C 34693 hPa Calm     85 % 0 mm 0.0 W/m2 CLR
00:40 -13.2 °C -14.5 °C 34693 hPa Calm     85 % 0 mm 0.0 W/m2 CLR
00:45 -13.2 °C -14.5 °C 34682.8 hPa Calm     85 % 0 mm 0.0 W/m2 CLR
00:50 -13.2 °C -14.5 °C 34682.8 hPa Calm     85 % 0 mm 0.0 W/m2 CLR
00:55 -13.2 °C -14.5 °C 34682.8 hPa Calm     85 % 0 mm 0.0 W/m2 CLR
01:00 -13.2 °C -14.4 °C 34693 hPa Calm     86 % 0 mm 0.0 W/m2 CLR
01:05 -13.2 °C -14.4 °C 34693 hPa Calm     86 % 0 mm 0.0 W/m2 CLR
01:10 -13.2 °C -14.3 °C 34693 hPa Calm     87 % 0 mm 0.0 W/m2 CLR
01:15 -13.2 °C -14.3 °C 34693 hPa Calm     87 % 0 mm 0.0 W/m2 CLR
01:20 -13.2 °C -14.2 °C 34693 hPa Calm     88 % 0 mm 0.0 W/m2 CLR
01:25 -12.8 °C -13.9 °C 34693 hPa Calm     88 % 0 mm 0.0 W/m2 CLR
01:30 -12.8 °C -13.9 °C 34693 hPa Calm     88 % 0 mm 0.0 W/m2 CLR
01:35 -13.2 °C -14.3 °C 34693 hPa Calm     87 % 0 mm 0.0 W/m2 CLR
01:40 -13.2 °C -14.3 °C 34693 hPa Calm     87 % 0 mm 0.0 W/m2 CLR
01:45 -13.2 °C -14.3 °C 34693 hPa Calm     87 % 0 mm 0.0 W/m2 CLR
01:50 -13.2 °C -14.2 °C 34693 hPa Calm     88 % 0 mm 0.0 W/m2 CLR
01:55 -13.4 °C -14.5 °C 34682.8 hPa Calm     88 % 0 mm 0.0 W/m2 CLR
02:00 -13.4 °C -14.5 °C 34682.8 hPa Calm     88 % 0 mm 0.0 W/m2 CLR
02:05 -13.4 °C -14.4 °C 34682.8 hPa Calm     89 % 0 mm 0.0 W/m2 CLR
02:10 -13.4 °C -14.4 °C 34682.8 hPa Calm     89 % 0 mm 0.0 W/m2 CLR
02:15 -13.4 °C -14.4 °C 34682.8 hPa Calm     89 % 0 mm 0.0 W/m2 CLR
02:20 -13.4 °C -14.4 °C 34682.8 hPa Calm     89 % 0 mm 0.0 W/m2 CLR
02:25 -13.4 °C -14.4 °C 34682.8 hPa Calm     89 % 0 mm 0.0 W/m2 CLR
02:30 -13.4 °C -14.3 °C 34682.8 hPa Calm     90 % 0 mm 0.0 W/m2 CLR
02:35 -13.8 °C -14.7 °C 34682.8 hPa Calm     89 % 0 mm 0.0 W/m2 CLR
02:40 -13.8 °C -14.7 °C 34682.8 hPa Calm     89 % 0 mm 0.0 W/m2 CLR
02:45 -13.8 °C -14.6 °C 34682.8 hPa Calm     90 % 0 mm 0.0 W/m2 CLR
02:50 -13.8 °C -14.6 °C 34682.8 hPa Calm     90 % 0 mm 0.0 W/m2 CLR
02:55 -13.8 °C -14.6 °C 34682.8 hPa Calm     90 % 0 mm 0.0 W/m2 CLR
03:00 -13.8 °C -14.6 °C 34682.8 hPa Calm     90 % 0 mm 0.0 W/m2 CLR
03:05 -13.8 °C -14.6 °C 34682.8 hPa Calm     90 % 0 mm 0.0 W/m2 CLR
03:10 -13.8 °C -14.6 °C 34669.3 hPa Calm     90 % 0 mm 0.0 W/m2 CLR
03:15 -14.1 °C -14.9 °C 34682.8 hPa Calm     90 % 0 mm 0.0 W/m2 CLR
03:20 -14.1 °C -14.9 °C 34682.8 hPa Calm     90 % 0 mm 0.0 W/m2 CLR
03:25 -14.1 °C -14.9 °C 34682.8 hPa Calm     90 % 0 mm 0.0 W/m2 CLR
03:30 -14.1 °C -14.9 °C 34669.3 hPa Calm     90 % 0 mm 0.0 W/m2 CLR
03:35 -14.1 °C -14.9 °C 34669.3 hPa Calm     90 % 0 mm 0.0 W/m2 CLR
03:40 -14.1 °C -14.9 °C 34669.3 hPa Calm     90 % 0 mm 0.0 W/m2 CLR
03:45 -14.1 °C -14.9 °C 34669.3 hPa Calm     90 % 0 mm 0.0 W/m2 CLR
03:50 -14.1 °C -14.8 °C 34669.3 hPa Calm     91 % 0 mm 0.0 W/m2 CLR
03:55 -14.1 °C -14.8 °C 34669.3 hPa Calm     91 % 0 mm 0.0 W/m2 CLR
04:00 -14.1 °C -14.8 °C 34669.3 hPa Calm     91 % 0 mm 0.0 W/m2 CLR
04:05 -14.4 °C -15.1 °C 34669.3 hPa Calm     91 % 0 mm 0.0 W/m2 CLR
04:10 -14.1 °C -14.8 °C 34669.3 hPa Calm     91 % 0 mm 0.0 W/m2 CLR
04:15 -14.1 °C -14.8 °C 34669.3 hPa Calm     91 % 0 mm 0.0 W/m2 CLR
04:20 -14.1 °C -14.8 °C 34669.3 hPa Calm     91 % 0 mm 0.0 W/m2 CLR
04:25 -14.4 °C -15.1 °C 34669.3 hPa Calm     91 % 0 mm 0.0 W/m2 CLR
04:30 -14.4 °C -15.1 °C 34669.3 hPa Calm     91 % 0 mm 0.0 W/m2 CLR
04:35 -14.4 °C -15.1 °C 34669.3 hPa Calm     91 % 0 mm 0.0 W/m2 CLR
04:40 -14.4 °C -15.1 °C 34669.3 hPa Calm     91 % 0 mm 0.0 W/m2 CLR
04:45 -14.4 °C -15.1 °C 34669.3 hPa Calm     91 % 0 mm 0.0 W/m2 CLR
04:50 -14.4 °C -15.1 °C 34669.3 hPa Calm     91 % 0 mm 0.0 W/m2 CLR
04:55 -14.4 °C -15.1 °C 34669.3 hPa Calm     91 % 0 mm 0.0 W/m2 CLR
05:02 -14.4 °C -15.1 °C 34669.3 hPa Calm     91 % 0 mm 0.0 W/m2 CLR
05:07 -14.4 °C -15.1 °C 34659.1 hPa Calm     91 % 0 mm 0.0 W/m2 CLR
05:12 -14.4 °C -15.1 °C 34659.1 hPa Calm     91 % 0 mm 0.0 W/m2 CLR
05:17 -14.7 °C -15.4 °C 34659.1 hPa Calm     91 % 0 mm 0.0 W/m2 CLR
05:22 -14.7 °C -15.4 °C 34659.1 hPa Calm     91 % 0 mm 0.0 W/m2 CLR
05:27 -14.7 °C -15.4 °C 34659.1 hPa Calm     91 % 0 mm 0.0 W/m2 CLR
05:32 -14.4 °C -15.1 °C 34659.1 hPa Calm     91 % 0 mm 0.0 W/m2 CLR
05:37 -14.7 °C -15.4 °C 34659.1 hPa Calm     91 % 0 mm 0.0 W/m2 CLR
05:42 -14.7 °C -15.4 °C 34659.1 hPa Calm     92 % 0 mm 0.0 W/m2 CLR
05:47 -14.7 °C -15.4 °C 34659.1 hPa Calm     92 % 0 mm 0.0 W/m2 CLR
05:52 -14.7 °C -15.4 °C 34659.1 hPa Calm     92 % 0 mm 0.0 W/m2 CLR
05:57 -14.4 °C -15.1 °C 34645.6 hPa Calm     92 % 0 mm 0.0 W/m2 CLR
06:02 -14.4 °C -15.1 °C 34645.6 hPa Calm     92 % 0 mm 0.0 W/m2 CLR
06:07 -14.4 °C -15.1 °C 34645.6 hPa Calm     91 % 0 mm 0.0 W/m2 CLR
06:12 -14.4 °C -15.1 °C 34645.6 hPa Calm     91 % 0 mm 0.0 W/m2 CLR
06:18 -14.4 °C -15.1 °C 34645.6 hPa Calm     92 % 0 mm 0.0 W/m2 CLR
06:23 -14.4 °C -15.1 °C 34645.6 hPa Calm     92 % 0 mm 0.0 W/m2 CLR
06:28 -14.4 °C -15.1 °C 34645.6 hPa Calm     92 % 0 mm 0.0 W/m2 CLR
06:36 -14.4 °C -15.1 °C 34645.6 hPa Calm     92 % 0 mm 0.0 W/m2 CLR
06:41 -14.4 °C -15.1 °C 34645.6 hPa Calm     92 % 0 mm 0.0 W/m2 CLR
06:46 -14.7 °C -15.4 °C 34645.6 hPa Calm     92 % 0 mm 0.0 W/m2 CLR
06:52 -14.7 °C -15.4 °C 34645.6 hPa Calm     92 % 0 mm 0.0 W/m2 CLR
06:57 -14.7 °C -15.4 °C 34645.6 hPa Calm     92 % 0 mm 0.0 W/m2 CLR
07:02 -14.7 °C -15.4 °C 34645.6 hPa Calm     92 % 0 mm 0.0 W/m2 OVC
07:08 -14.7 °C -15.4 °C 34645.6 hPa Calm     92 % 0 mm 0.0 W/m2 OVC
07:13 -14.7 °C -15.4 °C 34645.6 hPa Calm     92 % 0 mm 5.0 W/m2 OVC
07:18 -14.7 °C -15.4 °C 34645.6 hPa Calm     92 % 0 mm 9.0 W/m2 BKN
07:27 -14.4 °C -15.1 °C 34645.6 hPa Calm     92 % 0 mm 16.0 W/m2 BKN
07:32 -14.4 °C -15.1 °C 34659.1 hPa Calm     92 % 0 mm 21.0 W/m2 BKN
07:37 -14.4 °C -15.1 °C 34659.1 hPa Calm     92 % 0 mm 26.0 W/m2 BKN
07:53 -14.4 °C -15.1 °C 34659.1 hPa Calm     92 % 0 mm 53.0 W/m2 SCT
07:58 -14.4 °C -15.1 °C 34659.1 hPa Calm     92 % 0 mm 62.0 W/m2 SCT
08:03 -14.1 °C -14.8 °C 34659.1 hPa Calm     92 % 0 mm 62.0 W/m2 SCT
08:08 -14.1 °C -14.8 °C 34659.1 hPa Calm     92 % 0 mm 86.0 W/m2 FEW
08:13 -14.1 °C -14.8 °C 34659.1 hPa Calm     92 % 0 mm 102.0 W/m2 FEW
08:18 -13.8 °C -14.4 °C 34659.1 hPa Calm     92 % 0 mm 113.0 W/m2 CLR
08:23 -13.8 °C -14.4 °C 34659.1 hPa Calm     92 % 0 mm 132.0 W/m2 CLR
08:28 -13.4 °C -14.1 °C 34659.1 hPa Calm     92 % 0 mm 151.0 W/m2 CLR
08:33 -13.4 °C -14.1 °C 34659.1 hPa Calm     92 % 0 mm 169.0 W/m2 CLR
08:38 -13.2 °C -13.8 °C 34659.1 hPa Calm     92 % 0 mm 183.0 W/m2 CLR
08:43 -12.8 °C -13.5 °C 34659.1 hPa Calm     92 % 0 mm 197.0 W/m2 CLR
08:48 -12.6 °C -13.2 °C 34659.1 hPa Calm     92 % 0 mm 214.0 W/m2 CLR
08:53 -12.6 °C -13.4 °C 34659.1 hPa Calm     90 % 0 mm 230.0 W/m2 CLR
08:58 -12.2 °C -13.2 °C 34659.1 hPa Calm     89 % 0 mm 246.0 W/m2 CLR
09:04 -11.9 °C -12.9 °C 34659.1 hPa Calm     88 % 0 mm 262.0 W/m2 CLR
09:09 -11.6 °C -12.7 °C 34659.1 hPa Calm     87 % 0 mm 111.0 W/m2 CLR
09:14 -11 °C -12.2 °C 34659.1 hPa Calm     87 % 0 mm 272.0 W/m2 CLR
09:19 -10.7 °C -12.1 °C 34659.1 hPa Calm     85 % 0 mm 316.0 W/m2 CLR
09:24 -10.7 °C -12.1 °C 34659.1 hPa Calm     84 % 0 mm 336.0 W/m2 CLR
09:29 -10.4 °C -11.8 °C 34659.1 hPa Calm     84 % 0 mm 353.0 W/m2 CLR
09:34 -10.4 °C -11.9 °C 34659.1 hPa Calm     83 % 0 mm 373.0 W/m2 CLR
09:39 -10.1 °C -11.8 °C 34659.1 hPa Calm     81 % 0 mm 388.0 W/m2 CLR
09:44 -9.8 °C -11.6 °C 34659.1 hPa Calm     80 % 0 mm 404.0 W/m2 CLR
09:49 -9.8 °C -11.8 °C 34659.1 hPa Calm     78 % 0 mm 420.0 W/m2 CLR
09:54 -9.4 °C -11.7 °C 34659.1 hPa Calm     77 % 0 mm 439.0 W/m2 CLR
09:59 -9.1 °C -11.3 °C 34645.6 hPa Calm     77 % 0 mm 455.0 W/m2 CLR
10:04 -9.1 °C -11.5 °C 34645.6 hPa Calm     76 % 0 mm 469.0 W/m2 CLR
10:09 -8.8 °C -11.3 °C 34645.6 hPa Calm     75 % 0 mm 485.0 W/m2 CLR
10:14 -8.8 °C -11.5 °C 34645.6 hPa Calm     73 % 0 mm 501.0 W/m2 CLR
10:19 -8.8 °C -11.8 °C 34645.6 hPa Calm     71 % 0 mm 517.0 W/m2 CLR
10:24 -8.5 °C -11.7 °C 34645.6 hPa Calm     69 % 0 mm 533.0 W/m2 CLR
10:29 -8.5 °C -11.8 °C 34645.6 hPa Calm     68 % 0 mm 547.0 W/m2 CLR
10:34 -8.5 °C -12.1 °C 34645.6 hPa Calm     66 % 0 mm 559.0 W/m2 CLR
10:39 -7.9 °C -11.2 °C 34645.6 hPa Calm     68 % 0 mm 578.0 W/m2 CLR
10:44 -7.9 °C -11.5 °C 34645.6 hPa Calm     66 % 0 mm 594.0 W/m2 CLR
10:49 -7.6 °C -11.3 °C 34645.6 hPa Calm     65 % 0 mm 608.0 W/m2 CLR
10:54 -7.6 °C -11.3 °C 34635.4 hPa ENE 9 km/h 9 km/h 65 % 0 mm 621.0 W/m2 CLR
10:59 -7.6 °C -11.3 °C 34645.6 hPa ENE 9 km/h 9 km/h 65 % 0 mm 638.0 W/m2 CLR
11:04 -7 °C -11.3 °C 34645.6 hPa Calm     61 % 0 mm 650.0 W/m2 CLR
11:09 -6.7 °C -10.8 °C 34645.6 hPa Calm     62 % 0 mm 663.0 W/m2 CLR
11:14 -6.7 °C -11.1 °C 34635.4 hPa Calm     60 % 0 mm 677.0 W/m2 CLR
11:19 -6.7 °C -11 °C 34635.4 hPa Calm     61 % 0 mm 687.0 W/m2 CLR
11:24 -6.3 °C -10.7 °C 34635.4 hPa SE 9 km/h 9 km/h 61 % 0 mm 700.0 W/m2 CLR
11:27 -6.3 °C -11.4 °C 34635.4 hPa SE 11.9 km/h 11.9 km/h 56 % 0 mm 705.0 W/m2 CLR
11:32 -6.3 °C -11.3 °C 34635.4 hPa ESE 9 km/h 9 km/h 57 % 0 mm 715.0 W/m2 CLR
11:37 -6.1 °C -11.1 °C 34635.4 hPa SE 9 km/h 9 km/h 56 % 0 mm 724.0 W/m2 CLR
11:42 -6.1 °C -11.3 °C 34635.4 hPa SSE 20.9 km/h 20.9 km/h 55 % 0 mm 737.0 W/m2 CLR
11:47 -6.1 °C -11.1 °C 34635.4 hPa ESE 9 km/h 9 km/h 56 % 0 mm 745.0 W/m2 CLR
11:52 -6.1 °C -11.1 °C 34635.4 hPa South 11.9 km/h 11.9 km/h 56 % 0 mm 759.0 W/m2 CLR
11:57 -5.7 °C -11.2 °C 34635.4 hPa SSE 23.8 km/h 23.8 km/h 54 % 0 mm 768.0 W/m2 CLR
12:02 -5.7 °C -10.8 °C 34635.4 hPa SE 23.3 km/h 23.3 km/h 56 % 0 mm 779.0 W/m2 CLR
12:07 -5.7 °C -11 °C 34635.4 hPa ESE 20.8 km/h 20.8 km/h 55 % 0 mm 779.0 W/m2 CLR
12:12 -5.7 °C -11 °C 34635.4 hPa ESE 20.8 km/h 20.8 km/h 55 % 0 mm 779.0 W/m2 CLR
16:03 -5.7 °C -11 °C 34635.4 hPa ESE 20.8 km/h 20.8 km/h 55 % 0 mm 779.0 W/m2 CLR
Lo Temps de Massalio
Compliments of Weather Underground - 768 kb